Time;durP1;ratioP1;P1;durP2;ratioP2;P2;SDS_P1;SDS_P2;PMS_P1;PMS_P2;Temp;Humidity;BMP_temperature;BMP_pressure;BME280_temperature;BME280_humidity;BME280_pressure;Samples;Min_cycle;Max_cycle;Signal;HPM_P1;HPM_P2
2022/11/07 00:02:21;;;;;;;29.75;17.00;;;;;;;6.44;94.35;99134.71;1733789;82;21443;-44
2022/11/07 00:04:46;;;;;;;32.35;17.35;;;;;;;6.42;95.12;99137.84;1734147;82;21510;-47
2022/11/07 00:07:12;;;;;;;34.13;17.15;;;;;;;6.42;94.95;99133.93;1733992;83;21000;-44
2022/11/07 00:09:38;;;;;;;34.90;18.87;;;;;;;6.39;95.36;99133.20;1733873;83;21000;-42
2022/11/07 00:12:05;;;;;;;33.02;17.73;;;;;;;6.39;95.24;99131.44;1733986;82;20969;-41
2022/11/07 00:14:31;;;;;;;34.13;17.50;;;;;;;6.38;94.96;99129.72;1734140;82;20996;-44
2022/11/07 00:16:56;;;;;;;35.10;17.02;;;;;;;6.41;94.84;99136.14;1733736;83;21608;-41
2022/11/07 00:19:22;;;;;;;33.18;17.62;;;;;;;6.40;94.89;99134.42;1733886;82;21012;-46
2022/11/07 00:21:49;;;;;;;34.83;18.37;;;;;;;6.41;94.91;99134.83;1734210;82;21044;-42
2022/11/07 00:24:16;;;;;;;35.40;17.77;;;;;;;6.36;96.20;99131.55;1733821;83;21000;-44
2022/11/07 00:26:43;;;;;;;36.80;18.45;;;;;;;6.36;96.64;99131.55;1734053;82;20989;-44
2022/11/07 00:29:19;;;;;;;39.23;19.20;;;;;;;6.38;97.00;99138.02;1734131;82;20996;-44
2022/11/07 00:31:47;;;;;;;43.28;19.30;;;;;;;6.43;96.92;99139.53;1733899;83;20969;-42
2022/11/07 00:34:13;;;;;;;40.73;19.35;;;;;;;6.37;98.15;99149.36;1734031;82;21039;-45
2022/11/07 00:36:39;;;;;;;49.03;19.85;;;;;;;6.38;98.28;99136.71;1734063;82;21498;-44
2022/11/07 00:39:05;;;;;;;46.20;21.35;;;;;;;6.41;98.07;99142.66;1733876;82;21047;-46
2022/11/07 00:41:31;;;;;;;43.55;20.50;;;;;;;6.41;98.28;99140.05;1734531;82;21039;-45
2022/11/07 00:43:57;;;;;;;45.25;21.25;;;;;;;6.37;98.96;99136.30;1733827;83;20996;-45
2022/11/07 00:46:23;;;;;;;45.10;20.37;;;;;;;6.38;99.07;99140.17;1733860;83;21031;-44
2022/11/07 00:48:50;;;;;;;51.95;21.12;;;;;;;6.40;99.15;99130.50;1733585;80;21502;-42
2022/11/07 00:51:23;;;;;;;47.90;22.22;;;;;;;6.42;99.14;99124.78;1733832;83;21604;-42
2022/11/07 00:53:49;;;;;;;45.03;20.37;;;;;;;6.46;99.17;99122.44;1733872;82;21517;-44
2022/11/07 00:56:19;;;;;;;45.67;20.90;;;;;;;6.48;99.00;99121.91;1734206;82;21044;-45
2022/11/07 00:58:45;;;;;;;51.50;23.20;;;;;;;6.38;99.85;99117.97;1733614;83;21000;-45
2022/11/07 01:01:21;;;;;;;47.55;21.33;;;;;;;6.46;99.76;99106.77;1733792;83;21000;-45
2022/11/07 01:06:35;;;;;;;46.37;20.77;;;;;;;6.53;99.51;99103.41;1733927;83;21008;-45
2022/11/07 01:09:01;;;;;;;45.30;22.45;;;;;;;6.51;99.80;99096.98;1734027;82;21036;-44
2022/11/07 01:11:28;;;;;;;44.42;20.32;;;;;;;6.57;99.36;99093.69;1734047;82;21427;-44
2022/11/07 01:13:57;;;;;;;48.95;21.23;;;;;;;6.58;99.57;99088.87;1733915;83;21003;-42
2022/11/07 01:16:24;;;;;;;46.30;21.35;;;;;;;6.63;98.95;99085.61;1733252;82;21065;-48
2022/11/07 01:18:51;;;;;;;40.90;19.62;;;;;;;6.63;99.25;99085.61;1733634;83;21040;-42
2022/11/07 01:21:16;;;;;;;38.73;19.48;;;;;;;6.63;99.81;99076.47;1734243;82;21042;-43
2022/11/07 01:23:42;;;;;;;42.08;19.85;;;;;;;6.64;99.99;99079.45;1733850;82;21506;-43
2022/11/07 01:26:11;;;;;;;36.33;18.30;;;;;;;6.65;100.00;99064.18;1733901;83;20996;-42
2022/11/07 01:28:38;;;;;;;43.52;19.67;;;;;;;6.56;100.00;99068.49;1733837;82;20999;-44
2022/11/07 01:31:08;;;;;;;41.75;20.08;;;;;;;6.58;100.00;99059.66;1734340;82;21004;-42
2022/11/07 01:33:34;;;;;;;38.35;19.23;;;;;;;6.59;100.00;99054.00;1733892;82;21544;-44
2022/11/07 01:36:10;;;;;;;39.67;18.48;;;;;;;6.60;100.00;99056.52;1734086;82;20996;-48
2022/11/07 01:38:39;;;;;;;41.15;20.17;;;;;;;6.52;100.00;99049.02;1733927;82;21529;-44
2022/11/07 01:41:20;;;;;;;41.05;20.48;;;;;;;6.58;100.00;99046.59;1733808;82;20996;-41
2022/11/07 01:44:02;;;;;;;34.55;18.60;;;;;;;6.62;100.00;99044.70;1733647;83;21497;-47
2022/11/07 01:46:35;;;;;;;40.85;20.20;;;;;;;6.68;100.00;99043.16;1733989;82;21004;-44
2022/11/07 01:49:09;;;;;;;35.88;18.77;;;;;;;6.69;100.00;99033.07;1748793;82;21535;-43
2022/11/07 01:51:40;;;;;;;38.60;18.87;;;;;;;6.70;100.00;99031.70;1752557;81;21477;-43
2022/11/07 01:54:06;;;;;;;38.83;19.48;;;;;;;6.66;100.00;99030.62;1751070;82;21607;-44
2022/11/07 01:56:36;;;;;;;35.52;18.40;;;;;;;6.63;100.00;99026.82;1752570;81;21070;-46
2022/11/07 01:59:03;;;;;;;34.27;18.67;;;;;;;6.60;100.00;99025.64;1752521;82;21042;-47
2022/11/07 02:01:29;;;;;;;33.28;18.75;;;;;;;6.67;100.00;99019.23;1752773;81;21468;-43
2022/11/07 02:03:58;;;;;;;37.28;18.67;;;;;;;6.75;100.00;99018.45;1752506;81;20984;-45
2022/11/07 02:06:44;;;;;;;31.33;17.57;;;;;;;6.75;100.00;99013.22;1752480;81;21218;-42
2022/11/07 02:09:10;;;;;;;33.40;16.73;;;;;;;6.76;100.00;99016.21;1752691;81;21050;-46
2022/11/07 02:11:36;;;;;;;33.92;18.02;;;;;;;6.83;100.00;99015.49;1752552;81;21608;-46
2022/11/07 02:14:03;;;;;;;31.33;17.23;;;;;;;6.85;100.00;99009.27;1752514;82;21053;-45
2022/11/07 02:16:31;;;;;;;34.20;17.80;;;;;;;6.91;100.00;99007.70;1752512;81;21025;-42
2022/11/07 02:18:57;;;;;;;32.90;17.15;;;;;;;6.97;100.00;99001.78;1752352;79;20956;-41
2022/11/07 02:21:37;;;;;;;32.20;16.70;;;;;;;6.98;100.00;99003.03;1752474;82;20976;-47
2022/11/07 02:24:11;;;;;;;29.85;16.25;;;;;;;7.01;100.00;99003.37;1751579;82;21481;-44
2022/11/07 02:26:39;;;;;;;30.12;16.65;;;;;;;7.04;100.00;99009.74;1751821;82;21031;-43
2022/11/07 02:29:08;;;;;;;25.70;16.57;;;;;;;7.07;100.00;99010.45;1752515;81;21002;-46
2022/11/07 02:31:34;;;;;;;31.12;17.42;;;;;;;7.09;100.00;99006.47;1752515;81;20991;-42
2022/11/07 02:33:59;;;;;;;33.53;17.42;;;;;;;7.12;100.00;99005.03;1752524;81;21003;-42
2022/11/07 02:36:25;;;;;;;36.20;17.45;;;;;;;7.18;100.00;99007.81;1752510;81;21035;-45
2022/11/07 02:38:56;;;;;;;38.13;19.07;;;;;;;7.21;100.00;98995.92;1752492;81;21047;-42
2022/11/07 02:41:26;;;;;;;33.88;17.70;;;;;;;7.26;100.00;98998.70;1733337;79;21082;-46
2022/11/07 02:44:00;;;;;;;32.33;18.62;;;;;;;7.32;100.00;98997.57;1672089;86;21030;-42
2022/11/07 02:46:28;;;;;;;38.20;19.90;;;;;;;7.32;100.00;98987.58;1672437;86;21642;-45
2022/11/07 02:48:57;;;;;;;40.25;19.60;;;;;;;7.38;100.00;98987.27;1672790;86;21009;-45
2022/11/07 02:51:23;;;;;;;41.08;20.30;;;;;;;7.42;100.00;98984.45;1672650;86;20998;-44
2022/11/07 02:53:50;;;;;;;38.60;19.10;;;;;;;7.45;100.00;98980.36;1672745;86;21017;-43
2022/11/07 02:56:16;;;;;;;38.70;19.07;;;;;;;7.48;100.00;98987.23;1672856;86;21531;-43
2022/11/07 02:58:42;;;;;;;37.28;20.05;;;;;;;7.48;100.00;98975.47;1672676;86;21010;-43
2022/11/07 03:01:08;;;;;;;35.23;19.65;;;;;;;7.53;100.00;98977.84;1672725;85;21026;-43
2022/11/07 03:03:43;;;;;;;37.98;20.30;;;;;;;7.57;100.00;98976.33;1672672;86;21054;-44
2022/11/07 03:06:12;;;;;;;35.58;19.87;;;;;;;7.59;100.00;98969.25;1672739;86;21034;-44
2022/11/07 03:08:38;;;;;;;37.00;20.17;;;;;;;7.60;100.00;98973.55;1672837;86;21026;-47
2022/11/07 03:11:05;;;;;;;42.30;20.60;;;;;;;7.64;99.95;98975.55;1672598;86;21027;-45
2022/11/07 03:13:31;;;;;;;42.25;21.00;;;;;;;7.69;99.73;98977.05;1672832;86;20998;-46
2022/11/07 03:15:57;;;;;;;43.48;20.65;;;;;;;7.73;99.64;98979.50;1672796;86;21018;-47
2022/11/07 03:18:23;;;;;;;39.63;21.25;;;;;;;7.77;99.49;98980.60;1672679;86;21535;-44
2022/11/07 03:20:50;;;;;;;39.18;19.77;;;;;;;7.79;99.39;98985.30;1672677;86;21062;-44
2022/11/07 03:23:16;;;;;;;41.80;20.02;;;;;;;7.79;99.51;98984.45;1672964;84;21018;-45
2022/11/07 03:25:42;;;;;;;39.80;20.62;;;;;;;7.82;99.25;98984.28;1672645;86;21058;-46
2022/11/07 03:28:08;;;;;;;40.50;20.57;;;;;;;7.83;99.19;98984.22;1672707;86;21025;-46
2022/11/07 03:30:33;;;;;;;39.38;20.17;;;;;;;7.84;99.24;98988.55;1672721;86;21058;-46
2022/11/07 03:32:59;;;;;;;36.60;19.60;;;;;;;7.87;99.22;98986.22;1672702;86;21504;-44
2022/11/07 03:35:26;;;;;;;33.88;18.90;;;;;;;7.87;99.38;98989.68;1672427;86;21014;-42
2022/11/07 03:37:53;;;;;;;37.03;19.37;;;;;;;7.87;99.56;98986.22;1672864;86;20971;-43
2022/11/07 03:40:18;;;;;;;42.23;20.57;;;;;;;7.84;99.86;98991.16;1672612;86;21086;-48
2022/11/07 03:42:45;;;;;;;33.48;18.92;;;;;;;7.93;99.36;98991.17;1672788;85;21629;-47
2022/11/07 03:45:13;;;;;;;40.25;21.12;;;;;;;7.92;99.27;98993.39;1672623;86;21074;-44
2022/11/07 03:47:42;;;;;;;35.35;19.32;;;;;;;7.98;99.11;98985.23;1672622;86;21026;-43
2022/11/07 03:50:17;;;;;;;38.30;19.20;;;;;;;8.02;98.79;98984.17;1699851;84;21008;-43
2022/11/07 03:52:44;;;;;;;37.98;19.12;;;;;;;8.06;98.60;98981.78;1696942;83;21012;-46
2022/11/07 03:55:11;;;;;;;33.98;19.02;;;;;;;8.10;98.51;98963.30;1697567;84;21035;-44
2022/11/07 03:57:37;;;;;;;34.92;18.92;;;;;;;8.12;98.36;98960.98;1697702;84;20968;-43
2022/11/07 04:00:06;;;;;;;30.70;17.62;;;;;;;8.13;98.39;98953.52;1697488;84;20993;-45
2022/11/07 04:02:31;;;;;;;32.93;19.02;;;;;;;8.16;98.19;98946.80;1697446;84;21024;-45
2022/11/07 04:04:57;;;;;;;35.78;19.73;;;;;;;8.20;97.96;98942.25;1697419;84;21437;-48
2022/11/07 04:07:23;;;;;;;37.23;18.73;;;;;;;8.17;98.03;98938.02;1697441;84;21012;-43
2022/11/07 04:09:49;;;;;;;37.28;19.32;;;;;;;8.12;98.23;98940.50;1697662;84;20945;-46
2022/11/07 04:17:42;;;;;;;34.55;19.27;;;;;;;8.03;98.34;98936.09;1697435;84;21024;-47
2022/11/07 04:20:09;;;;;;;33.90;18.95;;;;;;;8.02;98.58;98944.02;1697484;84;20984;-45
2022/11/07 04:22:35;;;;;;;34.00;18.32;;;;;;;8.00;98.53;98948.02;1697588;84;21489;-45
2022/11/07 04:25:00;;;;;;;35.65;19.27;;;;;;;8.02;98.09;98938.34;1697416;84;20992;-43
2022/11/07 04:27:41;;;;;;;41.98;19.62;;;;;;;8.01;98.31;98944.97;1697497;84;20984;-44
2022/11/07 04:30:28;;;;;;;33.90;19.45;;;;;;;7.98;98.22;98947.25;1697417;84;21024;-46
2022/11/07 04:32:57;;;;;;;35.20;18.90;;;;;;;7.94;98.79;98942.27;1697501;83;20948;-43
2022/11/07 04:35:30;;;;;;;31.77;18.27;;;;;;;7.94;98.79;98936.56;1697439;84;20995;-45
2022/11/07 04:37:58;;;;;;;33.90;18.67;;;;;;;7.93;98.66;98937.94;1697435;84;20996;-45
2022/11/07 04:40:24;;;;;;;32.45;17.67;;;;;;;7.89;98.98;98938.55;1697406;84;21465;-48
2022/11/07 04:42:50;;;;;;;34.75;18.73;;;;;;;7.89;98.98;98932.01;1699545;84;21071;-45
2022/11/07 04:45:16;;;;;;;34.25;17.85;;;;;;;7.90;98.85;98936.80;1700910;84;20978;-43
2022/11/07 04:47:43;;;;;;;40.48;18.10;;;;;;;7.85;99.44;98935.24;1701210;84;21031;-44
2022/11/07 04:50:12;;;;;;;35.80;18.92;;;;;;;7.84;99.47;98936.19;1701037;84;20986;-44
2022/11/07 04:52:38;;;;;;;35.08;19.20;;;;;;;7.84;99.22;98945.78;1700958;84;20956;-43
2022/11/07 04:55:05;;;;;;;35.10;18.07;;;;;;;7.83;99.30;98944.11;1700960;84;20995;-45
2022/11/07 04:57:31;;;;;;;35.33;19.17;;;;;;;7.84;99.38;98941.86;1700909;84;20976;-44
2022/11/07 04:59:57;;;;;;;33.65;18.02;;;;;;;7.81;99.89;98934.18;1701046;84;21453;-46
2022/11/07 05:02:24;;;;;;;37.90;19.50;;;;;;;7.82;99.78;98931.49;1701142;84;20960;-44
2022/11/07 05:04:50;;;;;;;32.57;18.87;;;;;;;7.83;99.62;98932.33;1701154;84;20984;-47
2022/11/07 05:07:17;;;;;;;35.45;17.85;;;;;;;7.82;99.62;98934.55;1701149;84;21430;-45
2022/11/07 05:09:43;;;;;;;37.83;18.30;;;;;;;7.83;99.47;98933.64;1701018;84;20992;-45
2022/11/07 05:12:09;;;;;;;37.78;19.10;;;;;;;7.85;99.71;98935.72;1700935;84;20956;-48
2022/11/07 05:14:35;;;;;;;38.55;19.12;;;;;;;7.86;99.54;98933.50;1700998;84;21020;-43
2022/11/07 05:17:02;;;;;;;36.90;19.82;;;;;;;7.81;100.00;98936.33;1700973;84;21043;-45
2022/11/07 05:19:28;;;;;;;34.95;18.62;;;;;;;7.83;100.00;98937.09;1701057;84;20988;-45
2022/11/07 05:24:38;;;;;;;40.67;19.73;;;;;;;7.84;99.70;98932.26;1700890;84;21011;-44
2022/11/07 05:27:05;;;;;;;39.10;19.98;;;;;;;7.79;100.00;98936.03;1700920;84;20988;-43
2022/11/07 05:29:32;;;;;;;38.28;19.82;;;;;;;7.82;100.00;98943.70;1701079;84;20991;-44
2022/11/07 05:31:58;;;;;;;35.75;18.95;;;;;;;7.81;99.88;98944.18;1700911;84;20984;-44
2022/11/07 05:34:23;;;;;;;41.85;18.98;;;;;;;7.78;100.00;98944.32;1700917;84;20965;-46
2022/11/07 05:36:49;;;;;;;42.35;20.55;;;;;;;7.73;100.00;98945.03;1700861;84;21024;-45
2022/11/07 05:39:15;;;;;;;38.80;19.50;;;;;;;7.74;100.00;98941.95;1701017;84;20980;-45
2022/11/07 05:41:41;;;;;;;43.75;19.90;;;;;;;7.75;100.00;98936.64;1700855;84;21016;-45
2022/11/07 05:44:06;;;;;;;41.92;19.48;;;;;;;7.75;100.00;98947.55;1697435;84;20976;-48
2022/11/07 05:46:32;;;;;;;36.50;20.20;;;;;;;7.75;100.00;98944.94;1697463;84;21520;-43
2022/11/07 05:48:58;;;;;;;43.60;20.05;;;;;;;7.76;100.00;98951.41;1697483;84;21508;-45
2022/11/07 05:51:24;;;;;;;53.30;20.12;;;;;;;7.80;100.00;98962.58;1697386;84;21475;-42
2022/11/07 05:53:50;;;;;;;43.13;20.92;;;;;;;7.81;99.93;98957.73;1697507;84;20992;-42
2022/11/07 05:56:15;;;;;;;41.33;20.97;;;;;;;7.80;100.00;98961.27;1697395;84;21051;-45
2022/11/07 05:58:41;;;;;;;41.55;19.82;;;;;;;7.78;100.00;98959.19;1697560;84;20992;-46
2022/11/07 06:01:07;;;;;;;41.90;19.65;;;;;;;7.78;100.00;98957.41;1697328;84;20984;-42
2022/11/07 06:03:33;;;;;;;37.75;19.73;;;;;;;7.80;100.00;98962.58;1697349;84;20984;-42
2022/11/07 06:05:59;;;;;;;38.45;19.57;;;;;;;7.81;100.00;98967.73;1697362;84;21019;-42
2022/11/07 06:08:24;;;;;;;35.85;19.27;;;;;;;7.81;100.00;98962.97;1697444;84;21482;-45
2022/11/07 06:10:50;;;;;;;38.55;19.23;;;;;;;7.83;100.00;98959.34;1697463;84;20987;-47
2022/11/07 06:13:16;;;;;;;38.28;20.15;;;;;;;7.84;100.00;98967.59;1697374;84;20993;-45
2022/11/07 06:15:44;;;;;;;34.43;18.80;;;;;;;7.85;100.00;98969.75;1697374;84;21019;-47
2022/11/07 06:18:19;;;;;;;41.40;22.48;;;;;;;7.87;100.00;98970.05;1697375;84;21457;-48
2022/11/07 06:20:45;;;;;;;37.40;19.87;;;;;;;7.87;100.00;98971.83;1697400;84;21022;-48
2022/11/07 06:23:12;;;;;;;38.80;19.62;;;;;;;7.86;100.00;98970.15;1697356;84;20992;-47
2022/11/07 06:25:39;;;;;;;36.25;19.52;;;;;;;7.87;100.00;98975.28;1697404;84;21542;-45
2022/11/07 06:28:09;;;;;;;35.13;19.73;;;;;;;7.91;100.00;98969.43;1697605;84;20988;-43
2022/11/07 06:30:35;;;;;;;33.63;18.27;;;;;;;7.94;99.91;98976.30;1697403;84;21496;-48
2022/11/07 06:33:05;;;;;;;33.40;18.05;;;;;;;7.96;99.65;98984.45;1697317;84;20957;-44
2022/11/07 06:35:32;;;;;;;32.63;16.48;;;;;;;8.01;99.35;98989.02;1697401;84;20988;-47
2022/11/07 06:38:07;;;;;;;34.13;18.40;;;;;;;8.05;99.25;98980.07;1697579;84;20995;-44
2022/11/07 06:40:33;;;;;;;34.80;17.45;;;;;;;8.11;99.24;98989.86;1697387;84;20980;-44
2022/11/07 06:43:14;;;;;;;35.30;17.65;;;;;;;8.16;99.05;98982.63;1698876;84;21056;-44
2022/11/07 06:45:41;;;;;;;33.35;17.15;;;;;;;8.21;98.81;98978.00;1700927;84;21007;-45
2022/11/07 06:48:08;;;;;;;34.23;17.02;;;;;;;8.25;98.45;98986.09;1700984;84;21015;-47
2022/11/07 06:50:34;;;;;;;30.17;16.23;;;;;;;8.28;98.21;98988.56;1701100;84;20980;-44
2022/11/07 06:53:03;;;;;;;28.85;16.67;;;;;;;8.28;98.16;98987.25;1700868;84;20992;-48
2022/11/07 06:55:28;;;;;;;34.20;17.52;;;;;;;8.33;97.97;98987.00;1700953;84;21032;-47
2022/11/07 06:57:59;;;;;;;29.42;16.77;;;;;;;8.37;97.86;98982.85;1700801;83;20995;-45
2022/11/07 07:00:30;;;;;;;30.32;16.40;;;;;;;8.39;97.68;98984.09;1700857;84;20967;-43
2022/11/07 07:02:56;;;;;;;35.35;17.05;;;;;;;8.45;97.53;98987.25;1700866;84;20992;-45
2022/11/07 07:05:22;;;;;;;35.20;18.00;;;;;;;8.51;97.39;98989.17;1700835;84;20949;-45
2022/11/07 07:07:48;;;;;;;29.27;17.77;;;;;;;8.53;97.07;98996.05;1701076;84;21028;-45
2022/11/07 07:10:14;;;;;;;39.70;17.62;;;;;;;8.52;96.92;98996.97;1700966;84;21028;-44
2022/11/07 07:12:40;;;;;;;31.05;17.50;;;;;;;8.55;96.95;98999.44;1700904;84;20992;-44
2022/11/07 07:15:07;;;;;;;33.83;18.07;;;;;;;8.55;96.60;98995.50;1701004;84;21019;-44
2022/11/07 07:17:33;;;;;;;37.78;17.65;;;;;;;8.61;96.59;98989.09;1701109;84;20988;-44
2022/11/07 07:19:59;;;;;;;38.08;18.27;;;;;;;8.65;96.28;98996.70;1701048;84;21438;-44
2022/11/07 07:22:24;;;;;;;36.98;17.90;;;;;;;8.71;96.21;98994.22;1701058;84;21438;-43
2022/11/07 07:24:52;;;;;;;30.88;18.02;;;;;;;8.73;95.88;98999.39;1700963;84;21457;-46
2022/11/07 07:27:20;;;;;;;;;;;;;;;8.74;95.66;98997.16;1703509;83;21016;-45
2022/11/07 07:29:46;;;;;;;34.78;17.40;;;;;;;8.71;95.40;98995.53;1701018;84;20107;-45
2022/11/07 07:32:12;;;;;;;33.70;16.90;;;;;;;8.78;95.59;98992.97;1700971;84;21030;-42
2022/11/07 07:34:38;;;;;;;34.40;15.78;;;;;;;8.83;95.31;98996.20;1700930;84;20988;-45
2022/11/07 07:37:03;;;;;;;26.90;14.98;;;;;;;8.86;94.99;98995.21;1701008;84;20996;-44
2022/11/07 07:39:30;;;;;;;37.67;17.17;;;;;;;8.86;94.75;98993.03;1700248;84;20976;-45
2022/11/07 07:41:56;;;;;;;29.15;15.88;;;;;;;8.85;94.74;98993.50;1699524;84;21043;-43
2022/11/07 07:44:22;;;;;;;29.50;15.40;;;;;;;8.87;94.75;98990.33;1700104;83;21053;-45
2022/11/07 07:46:48;;;;;;;27.65;15.38;;;;;;;8.94;94.46;98982.52;1700992;84;21491;-45
2022/11/07 07:49:13;;;;;;;30.90;16.82;;;;;;;8.94;94.46;98982.52;1701005;84;21012;-42
2022/11/07 07:51:39;;;;;;;28.95;15.03;;;;;;;8.93;94.15;98973.42;1701013;84;21518;-44
2022/11/07 07:54:05;;;;;;;28.32;14.93;;;;;;;8.93;93.78;98978.23;1701024;84;21520;-44
2022/11/07 07:56:31;;;;;;;28.80;15.25;;;;;;;8.97;93.66;98984.16;1699745;84;21067;-45
2022/11/07 07:58:57;;;;;;;25.65;14.23;;;;;;;8.98;93.62;98984.52;1700193;84;20996;-49
2022/11/07 08:01:22;;;;;;;33.00;15.20;;;;;;;9.05;93.63;98976.70;1701019;84;20987;-46
2022/11/07 08:03:48;;;;;;;27.95;14.10;;;;;;;9.08;93.56;98983.11;1700907;84;21028;-45
2022/11/07 08:06:15;;;;;;;30.45;14.93;;;;;;;9.15;93.55;98985.78;1700189;84;21095;-42
2022/11/07 08:08:41;;;;;;;29.25;14.35;;;;;;;9.17;93.29;98997.03;1699548;84;22177;-43
2022/11/07 08:11:07;;;;;;;25.75;13.80;;;;;;;9.20;92.98;98999.50;1700746;84;21872;-45
2022/11/07 08:13:34;;;;;;;29.25;14.63;;;;;;;9.25;92.75;99004.95;1701007;81;20992;-45
2022/11/07 08:16:03;;;;;;;27.85;13.85;;;;;;;9.17;91.91;99000.97;1695624;84;21471;-45
2022/11/07 08:18:29;;;;;;;31.93;15.05;;;;;;;9.22;92.12;99006.81;1695372;84;21048;-43
2022/11/07 08:20:56;;;;;;;25.10;14.45;;;;;;;9.22;91.66;99001.57;1723779;81;21003;-41
2022/11/07 08:23:23;;;;;;;26.95;13.38;;;;;;;9.27;91.89;99007.02;1728313;83;21003;-41
2022/11/07 08:25:53;;;;;;;29.90;14.38;;;;;;;9.21;91.34;99009.05;1728435;83;21487;-41
2022/11/07 08:28:21;;;;;;;31.68;15.58;;;;;;;9.23;91.16;99013.74;1728179;83;21007;-40
2022/11/07 08:31:00;;;;;;;23.07;13.03;;;;;;;9.32;91.31;99016.34;1728222;83;21568;-42
2022/11/07 08:33:27;;;;;;;24.52;13.72;;;;;;;9.38;90.92;99015.98;1728182;83;21007;-44
2022/11/07 08:36:01;;;;;;;30.92;12.78;;;;;;;9.37;90.21;99009.06;1699906;83;20995;-41
2022/11/07 08:38:29;;;;;;;28.65;13.22;;;;;;;9.38;90.24;99011.21;1710318;82;20984;-38
2022/11/07 08:40:55;;;;;;;25.08;13.35;;;;;;;9.45;89.88;99013.88;1700464;84;20988;-39
2022/11/07 08:43:22;;;;;;;23.92;14.13;;;;;;;9.51;89.95;99012.22;1717553;83;21030;-39
2022/11/07 08:45:49;;;;;;;23.67;11.95;;;;;;;9.55;89.60;99016.39;1726371;82;20997;-46
2022/11/07 08:48:16;;;;;;;24.50;13.13;;;;;;;9.64;89.50;99013.73;1726375;82;20998;-43
2022/11/07 08:50:42;;;;;;;24.00;12.43;;;;;;;9.61;88.46;99017.35;1726504;82;21015;-42
2022/11/07 08:53:08;;;;;;;22.27;11.93;;;;;;;9.67;88.82;99017.47;1725692;83;21003;-42
2022/11/07 08:55:34;;;;;;;24.23;12.88;;;;;;;9.70;88.18;99017.78;1725614;83;21074;-43
2022/11/07 08:58:04;;;;;;;21.25;13.15;;;;;;;9.68;87.93;99017.00;1725576;83;20987;-43
2022/11/07 09:00:31;;;;;;;22.85;12.73;;;;;;;9.73;88.21;99017.59;1725644;83;21010;-43
2022/11/07 09:03:03;;;;;;;20.23;11.38;;;;;;;9.79;88.21;99025.14;1725565;83;21499;-42
2022/11/07 09:05:30;;;;;;;28.67;12.40;;;;;;;9.75;86.77;99029.72;1724822;83;21010;-43
2022/11/07 09:07:56;;;;;;;22.23;12.87;;;;;;;9.77;87.06;99027.02;1725474;82;20964;-45
2022/11/07 09:10:21;;;;;;;21.93;11.90;;;;;;;9.76;86.79;99027.93;1725839;83;21045;-48
2022/11/07 09:12:49;;;;;;;23.83;11.53;;;;;;;9.78;86.89;99024.27;1725487;83;21050;-47
2022/11/07 09:15:16;;;;;;;17.52;11.12;;;;;;;9.80;86.52;99025.50;1725700;83;20959;-38
2022/11/07 09:17:42;;;;;;;17.55;11.05;;;;;;;9.81;85.85;99024.59;1726631;83;21114;-41
2022/11/07 09:20:09;;;;;;;19.32;10.72;;;;;;;9.85;85.29;99023.95;1726420;83;21010;-39
2022/11/07 09:22:35;;;;;;;18.48;11.75;;;;;;;9.79;84.55;99022.05;1726747;83;20995;-39
2022/11/07 09:25:02;;;;;;;18.23;10.93;;;;;;;9.91;85.44;99031.47;1726706;83;21544;-41
2022/11/07 09:27:27;;;;;;;20.23;11.48;;;;;;;9.90;84.66;99025.37;1726368;83;21496;-40
2022/11/07 09:29:53;;;;;;;21.82;10.72;;;;;;;9.90;84.18;99018.81;1726521;82;20975;-41
2022/11/07 09:32:19;;;;;;;16.27;10.40;;;;;;;10.03;84.83;99025.52;1726554;83;21005;-40
2022/11/07 09:34:45;;;;;;;17.05;10.18;;;;;;;10.10;84.71;99024.72;1726588;83;21500;-41
2022/11/07 09:37:11;;;;;;;13.45;9.63;;;;;;;10.09;83.42;99026.95;1726542;83;21559;-41
2022/11/07 09:39:36;;;;;;;19.02;10.53;;;;;;;10.11;83.19;99029.85;1726622;83;20959;-40
2022/11/07 09:42:27;;;;;;;20.95;10.88;;;;;;;9.93;81.30;99033.53;1726119;83;21030;-39
2022/11/07 09:44:58;;;;;;;19.75;10.20;;;;;;;10.06;82.56;99033.23;1733965;82;21028;-43
2022/11/07 09:47:47;;;;;;;19.00;10.65;;;;;;;10.12;82.56;99029.41;1757741;81;21017;-44
2022/11/07 09:50:18;;;;;;;16.87;9.05;;;;;;;10.12;81.18;99032.03;1769840;81;20970;-43
2022/11/07 09:53:04;;;;;;;16.05;9.75;;;;;;;10.22;81.28;99030.55;1733621;83;21006;-43
2022/11/07 09:55:44;;;;;;;18.40;10.40;;;;;;;10.27;80.79;99033.77;1744071;82;20991;-45
2022/11/07 09:58:21;;;;;;;17.98;9.83;;;;;;;10.25;80.08;99042.69;1738770;82;21014;-45
2022/11/07 10:00:46;;;;;;;22.22;10.45;;;;;;;10.33;80.59;99038.71;1729840;82;21006;-45
2022/11/07 10:03:13;;;;;;;17.87;9.50;;;;;;;10.37;79.12;99035.44;1717418;82;21087;-44
2022/11/07 10:05:59;;;;;;;17.60;10.08;;;;;;;10.47;79.92;99044.45;1684389;84;21001;-46
2022/11/07 10:08:54;;;;;;;21.15;10.65;;;;;;;10.51;79.87;99039.86;1700410;84;21503;-43
2022/11/07 10:11:34;;;;;;;16.30;9.95;;;;;;;10.53;79.84;99032.28;1701935;84;21006;-43
2022/11/07 10:14:25;;;;;;;19.23;10.38;;;;;;;10.45;77.77;99032.35;1698984;83;21050;-46
2022/11/07 10:17:20;;;;;;;18.55;9.33;;;;;;;10.52;78.14;99027.11;1698192;84;20987;-46
2022/11/07 10:20:23;;;;;;;17.07;8.93;;;;;;;10.58;78.47;99032.47;1706485;84;20997;-45
2022/11/07 10:23:06;;;;;;;18.95;9.93;;;;;;;10.56;78.05;99023.35;1698396;84;21002;-45
2022/11/07 10:25:55;;;;;;;14.33;9.13;;;;;;;10.38;75.91;99028.75;1682497;84;21015;-44
2022/11/07 10:28:23;;;;;;;20.37;10.43;;;;;;;10.43;77.00;99021.09;1683970;84;21000;-48
2022/11/07 10:30:51;;;;;;;19.00;8.98;;;;;;;10.29;76.04;99032.36;1703808;83;21489;-47
2022/11/07 10:33:38;;;;;;;14.90;8.83;;;;;;;10.31;76.96;99031.36;1712070;82;20991;-46
2022/11/07 10:36:24;;;;;;;14.65;9.13;;;;;;;10.30;76.95;99041.48;1689422;84;21023;-45
2022/11/07 10:38:51;;;;;;;16.57;9.28;;;;;;;10.21;75.57;99051.69;1717582;83;20987;-48
2022/11/07 10:41:26;;;;;;;15.72;9.13;;;;;;;10.18;75.64;99036.92;1698192;83;21013;-45
2022/11/07 10:44:09;;;;;;;18.12;9.20;;;;;;;10.19;76.10;99036.84;1681568;84;21079;-45
2022/11/07 10:46:45;;;;;;;14.87;8.43;;;;;;;10.19;75.73;99027.64;1699567;83;20997;-43
2022/11/07 10:49:25;;;;;;;17.85;8.63;;;;;;;10.28;76.44;99024.95;1746616;82;20968;-45
2022/11/07 10:52:09;;;;;;;13.75;8.70;;;;;;;10.38;76.23;99026.13;1733882;82;21006;-43
2022/11/07 10:54:35;;;;;;;12.68;7.62;;;;;;;10.47;75.41;99013.39;1735436;82;20973;-46
2022/11/07 10:57:12;;;;;;;14.20;8.60;;;;;;;10.58;76.05;99019.33;1745942;82;21019;-44
2022/11/07 10:59:49;;;;;;;13.70;7.90;;;;;;;10.55;74.97;99021.20;1712639;82;20991;-49
2022/11/07 11:02:25;;;;;;;12.53;7.37;;;;;;;10.67;75.34;99023.55;1738415;82;21001;-46
2022/11/07 11:04:59;;;;;;;11.43;7.45;;;;;;;10.80;75.01;99028.08;1744350;82;20994;-47
2022/11/07 11:07:35;;;;;;;12.28;7.60;;;;;;;10.86;74.95;99036.91;1729030;82;21057;-46
2022/11/07 11:10:05;;;;;;;10.95;7.17;;;;;;;10.83;73.32;99030.53;1734132;82;20953;-45
2022/11/07 11:12:33;;;;;;;10.28;7.20;;;;;;;10.88;73.75;99027.16;1721335;82;21005;-46
2022/11/07 11:15:16;;;;;;;10.43;7.08;;;;;;;10.95;73.48;99027.13;1744657;82;21007;-48
2022/11/07 11:17:43;;;;;;;10.32;6.42;;;;;;;10.98;74.13;99034.02;1703960;83;20925;-43
2022/11/07 11:20:39;;;;;;;12.25;7.12;;;;;;;11.01;73.57;99030.73;1723578;83;20989;-45
2022/11/07 11:23:16;;;;;;;13.95;6.90;;;;;;;11.08;73.21;99028.09;1745928;82;20959;-46
2022/11/07 11:25:44;;;;;;;;;;;;;;;11.20;73.61;99026.95;1728046;83;21419;-45
2022/11/07 11:28:38;;;;;;;12.88;6.72;;;;;;;11.06;71.75;99019.45;1725632;83;20098;-47
2022/11/07 11:31:18;;;;;;;13.40;7.40;;;;;;;11.05;72.29;99028.27;1746345;82;20971;-42
2022/11/07 11:34:08;;;;;;;11.68;7.37;;;;;;;11.09;73.41;99031.09;1704109;83;20948;-45
2022/11/07 11:36:42;;;;;;;14.53;7.30;;;;;;;11.07;73.88;99029.02;1722486;83;21001;-46
2022/11/07 11:39:45;;;;;;;12.07;7.33;;;;;;;10.97;73.07;99038.44;1720813;83;21592;-45
2022/11/07 11:42:29;;;;;;;12.25;6.67;;;;;;;11.09;74.10;99035.03;1706482;82;21042;-42
2022/11/07 11:45:00;;;;;;;14.33;7.20;;;;;;;11.08;74.22;99042.57;1708771;82;21056;-44
2022/11/07 11:47:40;;;;;;;14.85;7.22;;;;;;;11.06;74.27;99047.53;1680218;84;21477;-45